sensor_id;sensor_type;location;lat;lon;timestamp;P1;durP1;ratioP1;P2;durP2;ratioP2
595;SDS011;19946;49.306;11.350;2022-08-01T00:01:26;3.50;;;3.50;;
595;SDS011;19946;49.306;11.350;2022-08-01T00:04:26;3.70;;;3.70;;
595;SDS011;19946;49.306;11.350;2022-08-01T00:07:26;3.70;;;3.70;;
595;SDS011;19946;49.306;11.350;2022-08-01T00:10:27;3.63;;;3.63;;
595;SDS011;19946;49.306;11.350;2022-08-01T00:13:27;3.80;;;3.80;;
595;SDS011;19946;49.306;11.350;2022-08-01T00:16:27;3.90;;;3.90;;
595;SDS011;19946;49.306;11.350;2022-08-01T00:23:02;3.50;;;3.50;;
595;SDS011;19946;49.306;11.350;2022-08-01T00:30:25;3.80;;;3.80;;
595;SDS011;19946;49.306;11.350;2022-08-01T00:33:25;4.23;;;4.23;;
595;SDS011;19946;49.306;11.350;2022-08-01T00:36:25;3.50;;;3.50;;
595;SDS011;19946;49.306;11.350;2022-08-01T00:43:00;3.73;;;3.73;;
595;SDS011;19946;49.306;11.350;2022-08-01T00:46:01;4.13;;;4.13;;
595;SDS011;19946;49.306;11.350;2022-08-01T00:49:01;3.80;;;3.80;;
595;SDS011;19946;49.306;11.350;2022-08-01T00:52:02;3.60;;;3.60;;
595;SDS011;19946;49.306;11.350;2022-08-01T00:55:05;3.60;;;3.60;;
595;SDS011;19946;49.306;11.350;2022-08-01T00:58:05;3.50;;;3.50;;
595;SDS011;19946;49.306;11.350;2022-08-01T01:04:33;3.63;;;3.63;;
595;SDS011;19946;49.306;11.350;2022-08-01T01:15:47;3.60;;;3.60;;
595;SDS011;19946;49.306;11.350;2022-08-01T01:18:56;3.40;;;3.40;;
595;SDS011;19946;49.306;11.350;2022-08-01T01:22:08;3.50;;;3.50;;
595;SDS011;19946;49.306;11.350;2022-08-01T01:29:51;3.30;;;3.30;;
595;SDS011;19946;49.306;11.350;2022-08-01T01:32:54;3.67;;;3.67;;
595;SDS011;19946;49.306;11.350;2022-08-01T01:36:03;3.43;;;3.43;;
595;SDS011;19946;49.306;11.350;2022-08-01T01:39:07;3.50;;;3.50;;
595;SDS011;19946;49.306;11.350;2022-08-01T01:42:08;3.10;;;3.10;;
595;SDS011;19946;49.306;11.350;2022-08-01T01:45:09;3.07;;;3.07;;
595;SDS011;19946;49.306;11.350;2022-08-01T01:52:33;2.90;;;2.90;;
595;SDS011;19946;49.306;11.350;2022-08-01T01:55:35;2.90;;;2.90;;
595;SDS011;19946;49.306;11.350;2022-08-01T02:03:00;3.10;;;3.10;;
595;SDS011;19946;49.306;11.350;2022-08-01T02:06:03;3.20;;;3.20;;
595;SDS011;19946;49.306;11.350;2022-08-01T02:09:04;3.00;;;3.00;;
595;SDS011;19946;49.306;11.350;2022-08-01T02:16:31;3.00;;;3.00;;
595;SDS011;19946;49.306;11.350;2022-08-01T02:19:34;3.30;;;3.30;;
595;SDS011;19946;49.306;11.350;2022-08-01T02:26:56;3.03;;;3.03;;
595;SDS011;19946;49.306;11.350;2022-08-01T02:30:03;2.67;;;2.67;;
595;SDS011;19946;49.306;11.350;2022-08-01T02:33:15;3.00;;;3.00;;
595;SDS011;19946;49.306;11.350;2022-08-01T02:36:18;2.90;;;2.90;;
595;SDS011;19946;49.306;11.350;2022-08-01T02:39:21;3.13;;;3.13;;
595;SDS011;19946;49.306;11.350;2022-08-01T02:42:25;3.27;;;3.27;;
595;SDS011;19946;49.306;11.350;2022-08-01T02:45:27;3.30;;;3.30;;
595;SDS011;19946;49.306;11.350;2022-08-01T02:48:30;3.20;;;3.20;;
595;SDS011;19946;49.306;11.350;2022-08-01T02:51:33;3.73;;;3.73;;
595;SDS011;19946;49.306;11.350;2022-08-01T02:54:36;3.30;;;3.30;;
595;SDS011;19946;49.306;11.350;2022-08-01T02:57:38;3.30;;;3.30;;
595;SDS011;19946;49.306;11.350;2022-08-01T03:00:41;3.20;;;3.20;;
595;SDS011;19946;49.306;11.350;2022-08-01T03:08:06;3.53;;;3.53;;
595;SDS011;19946;49.306;11.350;2022-08-01T03:11:08;3.60;;;3.60;;
595;SDS011;19946;49.306;11.350;2022-08-01T03:18:00;3.80;;;3.80;;
595;SDS011;19946;49.306;11.350;2022-08-01T03:21:03;3.73;;;3.73;;
595;SDS011;19946;49.306;11.350;2022-08-01T03:24:04;3.63;;;3.63;;
595;SDS011;19946;49.306;11.350;2022-08-01T03:27:06;3.60;;;3.60;;
595;SDS011;19946;49.306;11.350;2022-08-01T03:30:08;3.50;;;3.50;;
595;SDS011;19946;49.306;11.350;2022-08-01T03:33:10;3.20;;;3.20;;
595;SDS011;19946;49.306;11.350;2022-08-01T03:36:11;3.23;;;3.23;;
595;SDS011;19946;49.306;11.350;2022-08-01T03:39:12;3.53;;;3.53;;
595;SDS011;19946;49.306;11.350;2022-08-01T03:42:19;3.80;;;3.80;;
595;SDS011;19946;49.306;11.350;2022-08-01T03:49:45;3.70;;;3.70;;
595;SDS011;19946;49.306;11.350;2022-08-01T03:52:48;3.70;;;3.70;;
595;SDS011;19946;49.306;11.350;2022-08-01T03:55:50;3.40;;;3.40;;
595;SDS011;19946;49.306;11.350;2022-08-01T04:03:15;3.30;;;3.30;;
595;SDS011;19946;49.306;11.350;2022-08-01T04:10:38;3.17;;;3.17;;
595;SDS011;19946;49.306;11.350;2022-08-01T04:18:06;3.07;;;3.07;;
595;SDS011;19946;49.306;11.350;2022-08-01T04:21:07;3.40;;;3.40;;
595;SDS011;19946;49.306;11.350;2022-08-01T04:28:01;3.13;;;3.13;;
595;SDS011;19946;49.306;11.350;2022-08-01T04:35:26;2.70;;;2.70;;
595;SDS011;19946;49.306;11.350;2022-08-01T04:38:28;2.80;;;2.80;;
595;SDS011;19946;49.306;11.350;2022-08-01T04:41:30;2.70;;;2.70;;
595;SDS011;19946;49.306;11.350;2022-08-01T04:52:23;3.40;;;3.40;;
595;SDS011;19946;49.306;11.350;2022-08-01T04:59:54;4.70;;;4.60;;
595;SDS011;19946;49.306;11.350;2022-08-01T05:02:56;4.40;;;4.40;;
595;SDS011;19946;49.306;11.350;2022-08-01T05:05:57;4.70;;;4.70;;
595;SDS011;19946;49.306;11.350;2022-08-01T05:08:57;7.50;;;7.40;;
595;SDS011;19946;49.306;11.350;2022-08-01T05:11:58;6.10;;;6.00;;
595;SDS011;19946;49.306;11.350;2022-08-01T05:15:00;6.30;;;6.20;;
595;SDS011;19946;49.306;11.350;2022-08-01T05:18:01;6.40;;;6.30;;
595;SDS011;19946;49.306;11.350;2022-08-01T05:25:24;6.50;;;6.40;;
595;SDS011;19946;49.306;11.350;2022-08-01T05:28:24;6.43;;;6.33;;
595;SDS011;19946;49.306;11.350;2022-08-01T05:35:47;5.70;;;5.70;;
595;SDS011;19946;49.306;11.350;2022-08-01T05:38:47;5.10;;;5.10;;
595;SDS011;19946;49.306;11.350;2022-08-01T05:41:48;5.10;;;5.10;;
595;SDS011;19946;49.306;11.350;2022-08-01T05:45:00;4.70;;;4.70;;
595;SDS011;19946;49.306;11.350;2022-08-01T05:48:00;4.90;;;4.90;;
595;SDS011;19946;49.306;11.350;2022-08-01T05:55:23;5.50;;;5.50;;
595;SDS011;19946;49.306;11.350;2022-08-01T06:02:46;5.30;;;5.30;;
595;SDS011;19946;49.306;11.350;2022-08-01T06:10:08;5.33;;;5.33;;
595;SDS011;19946;49.306;11.350;2022-08-01T06:21:52;5.23;;;5.23;;
595;SDS011;19946;49.306;11.350;2022-08-01T06:25:00;4.70;;;4.70;;
595;SDS011;19946;49.306;11.350;2022-08-01T06:28:01;4.90;;;4.90;;
595;SDS011;19946;49.306;11.350;2022-08-01T06:35:23;4.70;;;4.70;;
595;SDS011;19946;49.306;11.350;2022-08-01T06:42:46;5.00;;;5.00;;
595;SDS011;19946;49.306;11.350;2022-08-01T06:50:10;4.73;;;4.73;;
595;SDS011;19946;49.306;11.350;2022-08-01T06:57:33;5.00;;;5.00;;
595;SDS011;19946;49.306;11.350;2022-08-01T07:04:56;4.60;;;4.60;;
595;SDS011;19946;49.306;11.350;2022-08-01T07:18:15;5.40;;;5.40;;
595;SDS011;19946;49.306;11.350;2022-08-01T07:24:43;5.43;;;5.43;;
595;SDS011;19946;49.306;11.350;2022-08-01T07:27:43;5.57;;;5.57;;
595;SDS011;19946;49.306;11.350;2022-08-01T07:30:44;5.50;;;5.50;;
595;SDS011;19946;49.306;11.350;2022-08-01T07:38:07;4.93;;;4.93;;
595;SDS011;19946;49.306;11.350;2022-08-01T07:45:37;5.00;;;5.00;;
595;SDS011;19946;49.306;11.350;2022-08-01T07:53:00;5.30;;;5.30;;
595;SDS011;19946;49.306;11.350;2022-08-01T08:00:23;5.50;;;5.50;;
595;SDS011;19946;49.306;11.350;2022-08-01T08:07:47;5.50;;;5.50;;
595;SDS011;19946;49.306;11.350;2022-08-01T08:19:31;5.50;;;5.50;;
595;SDS011;19946;49.306;11.350;2022-08-01T08:26:58;5.50;;;5.50;;
595;SDS011;19946;49.306;11.350;2022-08-01T08:30:00;5.40;;;5.40;;
595;SDS011;19946;49.306;11.350;2022-08-01T08:37:23;5.43;;;5.43;;
595;SDS011;19946;49.306;11.350;2022-08-01T08:44:46;5.87;;;5.77;;
595;SDS011;19946;49.306;11.350;2022-08-01T08:52:08;6.00;;;5.90;;
595;SDS011;19946;49.306;11.350;2022-08-01T08:59:31;5.53;;;5.53;;
595;SDS011;19946;49.306;11.350;2022-08-01T09:06:53;6.60;;;6.50;;
595;SDS011;19946;49.306;11.350;2022-08-01T09:10:00;6.30;;;6.20;;
595;SDS011;19946;49.306;11.350;2022-08-01T09:13:01;6.50;;;6.40;;
595;SDS011;19946;49.306;11.350;2022-08-01T09:20:25;6.67;;;6.57;;
595;SDS011;19946;49.306;11.350;2022-08-01T09:23:33;6.40;;;6.30;;
595;SDS011;19946;49.306;11.350;2022-08-01T09:26:35;5.60;;;5.60;;
595;SDS011;19946;49.306;11.350;2022-08-01T09:29:36;5.00;;;5.00;;
595;SDS011;19946;49.306;11.350;2022-08-01T09:32:37;5.10;;;5.10;;
595;SDS011;19946;49.306;11.350;2022-08-01T09:35:55;5.10;;;5.10;;
595;SDS011;19946;49.306;11.350;2022-08-01T09:38:57;5.20;;;5.20;;
595;SDS011;19946;49.306;11.350;2022-08-01T09:46:34;5.40;;;5.40;;
595;SDS011;19946;49.306;11.350;2022-08-01T09:49:37;5.47;;;5.47;;
595;SDS011;19946;49.306;11.350;2022-08-01T09:52:38;5.40;;;5.40;;
595;SDS011;19946;49.306;11.350;2022-08-01T09:55:39;5.30;;;5.30;;
595;SDS011;19946;49.306;11.350;2022-08-01T10:03:22;5.83;;;5.73;;
595;SDS011;19946;49.306;11.350;2022-08-01T10:11:04;5.30;;;5.30;;
595;SDS011;19946;49.306;11.350;2022-08-01T10:14:08;6.20;;;6.10;;
595;SDS011;19946;49.306;11.350;2022-08-01T10:21:30;7.60;;;7.50;;
595;SDS011;19946;49.306;11.350;2022-08-01T10:24:34;6.70;;;6.60;;
595;SDS011;19946;49.306;11.350;2022-08-01T10:27:37;6.70;;;6.60;;
595;SDS011;19946;49.306;11.350;2022-08-01T10:30:38;6.70;;;6.60;;
595;SDS011;19946;49.306;11.350;2022-08-01T10:38:03;6.83;;;6.73;;
595;SDS011;19946;49.306;11.350;2022-08-01T10:45:26;6.57;;;6.47;;
595;SDS011;19946;49.306;11.350;2022-08-01T10:48:32;6.40;;;6.30;;
595;SDS011;19946;49.306;11.350;2022-08-01T10:56:03;7.03;;;6.93;;
595;SDS011;19946;49.306;11.350;2022-08-01T11:07:23;6.37;;;6.27;;
595;SDS011;19946;49.306;11.350;2022-08-01T11:18:01;6.10;;;6.00;;
595;SDS011;19946;49.306;11.350;2022-08-01T11:25:27;5.63;;;5.63;;
595;SDS011;19946;49.306;11.350;2022-08-01T11:33:11;6.10;;;6.00;;
595;SDS011;19946;49.306;11.350;2022-08-01T11:40:34;5.50;;;5.50;;
595;SDS011;19946;49.306;11.350;2022-08-01T11:47:57;5.10;;;5.10;;
595;SDS011;19946;49.306;11.350;2022-08-01T11:55:20;5.53;;;5.53;;
595;SDS011;19946;49.306;11.350;2022-08-01T11:58:22;5.70;;;5.70;;
595;SDS011;19946;49.306;11.350;2022-08-01T12:01:23;5.10;;;5.10;;
595;SDS011;19946;49.306;11.350;2022-08-01T12:04:24;5.20;;;5.20;;
595;SDS011;19946;49.306;11.350;2022-08-01T12:11:46;5.10;;;5.10;;
595;SDS011;19946;49.306;11.350;2022-08-01T12:15:06;5.20;;;5.20;;
595;SDS011;19946;49.306;11.350;2022-08-01T12:18:11;5.07;;;5.07;;
595;SDS011;19946;49.306;11.350;2022-08-01T12:21:11;4.90;;;4.90;;
595;SDS011;19946;49.306;11.350;2022-08-01T12:28:01;4.80;;;4.80;;
595;SDS011;19946;49.306;11.350;2022-08-01T12:31:04;4.70;;;4.70;;
595;SDS011;19946;49.306;11.350;2022-08-01T12:37:30;5.20;;;5.20;;
595;SDS011;19946;49.306;11.350;2022-08-01T12:40:32;5.20;;;5.20;;
595;SDS011;19946;49.306;11.350;2022-08-01T12:48:05;4.80;;;4.80;;
595;SDS011;19946;49.306;11.350;2022-08-01T12:55:29;4.80;;;4.80;;
595;SDS011;19946;49.306;11.350;2022-08-01T12:58:30;5.30;;;5.30;;
595;SDS011;19946;49.306;11.350;2022-08-01T13:05:54;5.17;;;5.17;;
595;SDS011;19946;49.306;11.350;2022-08-01T13:13:19;4.70;;;4.70;;
595;SDS011;19946;49.306;11.350;2022-08-01T13:25:11;4.50;;;4.50;;
595;SDS011;19946;49.306;11.350;2022-08-01T13:32:34;4.23;;;4.23;;
595;SDS011;19946;49.306;11.350;2022-08-01T13:39:56;4.70;;;4.70;;
595;SDS011;19946;49.306;11.350;2022-08-01T13:47:18;4.67;;;4.67;;
595;SDS011;19946;49.306;11.350;2022-08-01T13:54:40;4.60;;;4.60;;
595;SDS011;19946;49.306;11.350;2022-08-01T14:02:02;4.30;;;4.30;;
595;SDS011;19946;49.306;11.350;2022-08-01T14:09:25;4.67;;;4.67;;
595;SDS011;19946;49.306;11.350;2022-08-01T14:16:47;4.67;;;4.67;;
595;SDS011;19946;49.306;11.350;2022-08-01T14:19:47;4.27;;;4.27;;
595;SDS011;19946;49.306;11.350;2022-08-01T14:27:10;4.30;;;4.30;;
595;SDS011;19946;49.306;11.350;2022-08-01T14:34:32;4.50;;;4.50;;
595;SDS011;19946;49.306;11.350;2022-08-01T14:41:54;4.30;;;4.30;;
595;SDS011;19946;49.306;11.350;2022-08-01T14:45:00;4.40;;;4.40;;
595;SDS011;19946;49.306;11.350;2022-08-01T14:48:01;4.00;;;4.00;;
595;SDS011;19946;49.306;11.350;2022-08-01T14:55:29;4.00;;;4.00;;
595;SDS011;19946;49.306;11.350;2022-08-01T15:02:51;3.97;;;3.97;;
595;SDS011;19946;49.306;11.350;2022-08-01T15:10:14;3.80;;;3.80;;
595;SDS011;19946;49.306;11.350;2022-08-01T15:17:37;4.10;;;4.10;;
595;SDS011;19946;49.306;11.350;2022-08-01T15:25:00;4.07;;;4.07;;
595;SDS011;19946;49.306;11.350;2022-08-01T15:32:23;4.00;;;4.00;;
595;SDS011;19946;49.306;11.350;2022-08-01T15:35:24;4.10;;;4.10;;
595;SDS011;19946;49.306;11.350;2022-08-01T15:38:24;4.00;;;4.00;;
595;SDS011;19946;49.306;11.350;2022-08-01T15:41:24;3.50;;;3.50;;
595;SDS011;19946;49.306;11.350;2022-08-01T15:48:01;4.03;;;4.03;;
595;SDS011;19946;49.306;11.350;2022-08-01T15:51:01;4.00;;;4.00;;
595;SDS011;19946;49.306;11.350;2022-08-01T15:58:00;3.60;;;3.60;;
595;SDS011;19946;49.306;11.350;2022-08-01T16:05:22;3.83;;;3.83;;
595;SDS011;19946;49.306;11.350;2022-08-01T16:12:44;4.00;;;4.00;;
595;SDS011;19946;49.306;11.350;2022-08-01T16:20:07;3.73;;;3.73;;
595;SDS011;19946;49.306;11.350;2022-08-01T16:27:30;3.70;;;3.70;;
595;SDS011;19946;49.306;11.350;2022-08-01T16:32:54;3.90;;;3.90;;
595;SDS011;19946;49.306;11.350;2022-08-01T16:35:55;3.73;;;3.73;;
595;SDS011;19946;49.306;11.350;2022-08-01T16:38:55;3.80;;;3.80;;
595;SDS011;19946;49.306;11.350;2022-08-01T16:41:56;3.70;;;3.70;;
595;SDS011;19946;49.306;11.350;2022-08-01T16:44:56;3.70;;;3.70;;
595;SDS011;19946;49.306;11.350;2022-08-01T16:47:58;3.90;;;3.90;;
595;SDS011;19946;49.306;11.350;2022-08-01T16:50:58;3.83;;;3.83;;
595;SDS011;19946;49.306;11.350;2022-08-01T16:54:00;3.60;;;3.60;;
595;SDS011;19946;49.306;11.350;2022-08-01T16:57:00;3.70;;;3.70;;
595;SDS011;19946;49.306;11.350;2022-08-01T17:00:22;3.40;;;3.40;;
595;SDS011;19946;49.306;11.350;2022-08-01T17:03:25;3.40;;;3.40;;
595;SDS011;19946;49.306;11.350;2022-08-01T17:06:25;3.20;;;3.20;;
595;SDS011;19946;49.306;11.350;2022-08-01T17:09:26;3.40;;;3.40;;
595;SDS011;19946;49.306;11.350;2022-08-01T17:12:26;3.40;;;3.40;;
595;SDS011;19946;49.306;11.350;2022-08-01T17:15:27;3.50;;;3.50;;
595;SDS011;19946;49.306;11.350;2022-08-01T17:18:29;3.50;;;3.50;;
595;SDS011;19946;49.306;11.350;2022-08-01T17:21:30;3.57;;;3.57;;
595;SDS011;19946;49.306;11.350;2022-08-01T17:24:30;3.70;;;3.70;;
595;SDS011;19946;49.306;11.350;2022-08-01T17:27:31;3.70;;;3.70;;
595;SDS011;19946;49.306;11.350;2022-08-01T17:30:31;3.60;;;3.60;;
595;SDS011;19946;49.306;11.350;2022-08-01T17:33:32;3.80;;;3.80;;
595;SDS011;19946;49.306;11.350;2022-08-01T17:36:32;3.40;;;3.40;;
595;SDS011;19946;49.306;11.350;2022-08-01T17:39:32;3.40;;;3.40;;
595;SDS011;19946;49.306;11.350;2022-08-01T17:42:33;3.70;;;3.70;;
595;SDS011;19946;49.306;11.350;2022-08-01T17:45:33;3.77;;;3.77;;
595;SDS011;19946;49.306;11.350;2022-08-01T17:48:34;3.40;;;3.40;;
595;SDS011;19946;49.306;11.350;2022-08-01T17:51:34;3.30;;;3.30;;
595;SDS011;19946;49.306;11.350;2022-08-01T17:54:36;3.50;;;3.50;;
595;SDS011;19946;49.306;11.350;2022-08-01T17:57:38;3.40;;;3.40;;
595;SDS011;19946;49.306;11.350;2022-08-01T18:00:39;3.50;;;3.50;;
595;SDS011;19946;49.306;11.350;2022-08-01T18:03:40;3.70;;;3.70;;
595;SDS011;19946;49.306;11.350;2022-08-01T18:06:41;3.50;;;3.50;;
595;SDS011;19946;49.306;11.350;2022-08-01T18:09:42;3.40;;;3.40;;
595;SDS011;19946;49.306;11.350;2022-08-01T18:12:42;3.40;;;3.40;;
595;SDS011;19946;49.306;11.350;2022-08-01T18:15:43;4.13;;;4.13;;
595;SDS011;19946;49.306;11.350;2022-08-01T18:18:45;3.70;;;3.70;;
595;SDS011;19946;49.306;11.350;2022-08-01T18:21:46;3.40;;;3.40;;
595;SDS011;19946;49.306;11.350;2022-08-01T18:24:47;3.30;;;3.30;;
595;SDS011;19946;49.306;11.350;2022-08-01T18:27:47;3.60;;;3.60;;
595;SDS011;19946;49.306;11.350;2022-08-01T18:30:48;3.43;;;3.43;;
595;SDS011;19946;49.306;11.350;2022-08-01T18:33:48;3.20;;;3.20;;
595;SDS011;19946;49.306;11.350;2022-08-01T18:36:49;3.30;;;3.30;;
595;SDS011;19946;49.306;11.350;2022-08-01T18:39:49;3.70;;;3.70;;
595;SDS011;19946;49.306;11.350;2022-08-01T18:42:50;3.70;;;3.70;;
595;SDS011;19946;49.306;11.350;2022-08-01T18:45:50;3.50;;;3.50;;
595;SDS011;19946;49.306;11.350;2022-08-01T18:48:51;3.77;;;3.77;;
595;SDS011;19946;49.306;11.350;2022-08-01T18:51:52;3.70;;;3.70;;
595;SDS011;19946;49.306;11.350;2022-08-01T18:54:53;3.30;;;3.30;;
595;SDS011;19946;49.306;11.350;2022-08-01T18:57:54;3.30;;;3.30;;
595;SDS011;19946;49.306;11.350;2022-08-01T19:00:55;3.43;;;3.43;;
595;SDS011;19946;49.306;11.350;2022-08-01T19:03:55;3.37;;;3.37;;
595;SDS011;19946;49.306;11.350;2022-08-01T19:06:56;3.23;;;3.23;;
595;SDS011;19946;49.306;11.350;2022-08-01T19:09:56;3.53;;;3.53;;
595;SDS011;19946;49.306;11.350;2022-08-01T19:12:57;3.50;;;3.50;;
595;SDS011;19946;49.306;11.350;2022-08-01T19:15:57;3.27;;;3.27;;
595;SDS011;19946;49.306;11.350;2022-08-01T19:18:59;3.40;;;3.40;;
595;SDS011;19946;49.306;11.350;2022-08-01T19:22:03;3.10;;;3.10;;
595;SDS011;19946;49.306;11.350;2022-08-01T19:25:03;3.10;;;3.10;;
595;SDS011;19946;49.306;11.350;2022-08-01T19:28:04;3.10;;;3.10;;
595;SDS011;19946;49.306;11.350;2022-08-01T19:31:04;3.47;;;3.47;;
595;SDS011;19946;49.306;11.350;2022-08-01T19:34:07;3.30;;;3.30;;
595;SDS011;19946;49.306;11.350;2022-08-01T19:37:10;3.30;;;3.30;;
595;SDS011;19946;49.306;11.350;2022-08-01T19:40:11;3.20;;;3.20;;
595;SDS011;19946;49.306;11.350;2022-08-01T19:43:13;3.30;;;3.30;;
595;SDS011;19946;49.306;11.350;2022-08-01T19:46:14;3.57;;;3.57;;
595;SDS011;19946;49.306;11.350;2022-08-01T19:49:17;3.40;;;3.40;;
595;SDS011;19946;49.306;11.350;2022-08-01T19:52:18;3.40;;;3.40;;
595;SDS011;19946;49.306;11.350;2022-08-01T19:55:25;3.20;;;3.20;;
595;SDS011;19946;49.306;11.350;2022-08-01T19:58:26;3.60;;;3.60;;
595;SDS011;19946;49.306;11.350;2022-08-01T20:01:27;3.00;;;3.00;;
595;SDS011;19946;49.306;11.350;2022-08-01T20:04:28;2.90;;;2.90;;
595;SDS011;19946;49.306;11.350;2022-08-01T20:07:28;3.27;;;3.27;;
595;SDS011;19946;49.306;11.350;2022-08-01T20:10:30;3.03;;;3.03;;
595;SDS011;19946;49.306;11.350;2022-08-01T20:13:31;2.70;;;2.70;;
595;SDS011;19946;49.306;11.350;2022-08-01T20:16:32;3.07;;;3.07;;
595;SDS011;19946;49.306;11.350;2022-08-01T20:19:32;2.80;;;2.80;;
595;SDS011;19946;49.306;11.350;2022-08-01T20:22:33;2.80;;;2.80;;
595;SDS011;19946;49.306;11.350;2022-08-01T20:25:35;2.80;;;2.80;;
595;SDS011;19946;49.306;11.350;2022-08-01T20:28:38;3.10;;;3.10;;
595;SDS011;19946;49.306;11.350;2022-08-01T20:31:41;3.13;;;3.13;;
595;SDS011;19946;49.306;11.350;2022-08-01T20:34:45;2.90;;;2.90;;
595;SDS011;19946;49.306;11.350;2022-08-01T20:37:46;3.00;;;3.00;;
595;SDS011;19946;49.306;11.350;2022-08-01T20:40:47;3.20;;;3.20;;
595;SDS011;19946;49.306;11.350;2022-08-01T20:43:51;3.10;;;3.10;;
595;SDS011;19946;49.306;11.350;2022-08-01T20:46:54;3.10;;;3.10;;
595;SDS011;19946;49.306;11.350;2022-08-01T20:49:54;3.00;;;3.00;;
595;SDS011;19946;49.306;11.350;2022-08-01T20:53:15;2.97;;;2.97;;
595;SDS011;19946;49.306;11.350;2022-08-01T20:56:36;2.70;;;2.70;;
595;SDS011;19946;49.306;11.350;2022-08-01T20:59:42;2.70;;;2.70;;
595;SDS011;19946;49.306;11.350;2022-08-01T21:06:07;2.77;;;2.77;;
595;SDS011;19946;49.306;11.350;2022-08-01T21:09:13;2.70;;;2.70;;
595;SDS011;19946;49.306;11.350;2022-08-01T21:12:23;2.70;;;2.70;;
595;SDS011;19946;49.306;11.350;2022-08-01T21:18:46;3.00;;;3.00;;
595;SDS011;19946;49.306;11.350;2022-08-01T21:22:03;3.20;;;3.20;;
595;SDS011;19946;49.306;11.350;2022-08-01T21:25:09;3.03;;;3.03;;
595;SDS011;19946;49.306;11.350;2022-08-01T21:28:12;3.00;;;3.00;;
595;SDS011;19946;49.306;11.350;2022-08-01T21:31:14;3.10;;;3.10;;
595;SDS011;19946;49.306;11.350;2022-08-01T21:34:20;2.97;;;2.97;;
595;SDS011;19946;49.306;11.350;2022-08-01T21:37:23;3.10;;;3.10;;
595;SDS011;19946;49.306;11.350;2022-08-01T21:40:25;2.50;;;2.50;;
595;SDS011;19946;49.306;11.350;2022-08-01T21:43:26;2.50;;;2.50;;
595;SDS011;19946;49.306;11.350;2022-08-01T21:46:30;2.73;;;2.73;;
595;SDS011;19946;49.306;11.350;2022-08-01T21:49:32;2.70;;;2.70;;
595;SDS011;19946;49.306;11.350;2022-08-01T21:52:41;2.70;;;2.70;;
595;SDS011;19946;49.306;11.350;2022-08-01T22:02:49;2.30;;;2.30;;
595;SDS011;19946;49.306;11.350;2022-08-01T22:05:54;2.30;;;2.30;;
595;SDS011;19946;49.306;11.350;2022-08-01T22:08:55;2.30;;;2.30;;
595;SDS011;19946;49.306;11.350;2022-08-01T22:12:02;2.30;;;2.30;;
595;SDS011;19946;49.306;11.350;2022-08-01T22:15:06;2.60;;;2.60;;
595;SDS011;19946;49.306;11.350;2022-08-01T22:18:07;2.60;;;2.60;;
595;SDS011;19946;49.306;11.350;2022-08-01T22:21:07;2.70;;;2.70;;
595;SDS011;19946;49.306;11.350;2022-08-01T22:24:08;2.50;;;2.50;;
595;SDS011;19946;49.306;11.350;2022-08-01T22:27:08;2.27;;;2.27;;
595;SDS011;19946;49.306;11.350;2022-08-01T22:30:22;2.20;;;2.20;;
595;SDS011;19946;49.306;11.350;2022-08-01T22:33:23;2.37;;;2.37;;
595;SDS011;19946;49.306;11.350;2022-08-01T22:36:24;2.30;;;2.30;;
595;SDS011;19946;49.306;11.350;2022-08-01T22:39:24;2.27;;;2.27;;
595;SDS011;19946;49.306;11.350;2022-08-01T22:42:30;2.10;;;2.10;;
595;SDS011;19946;49.306;11.350;2022-08-01T22:46:02;2.30;;;2.30;;
595;SDS011;19946;49.306;11.350;2022-08-01T22:52:16;2.10;;;2.10;;
595;SDS011;19946;49.306;11.350;2022-08-01T22:55:26;2.20;;;2.20;;
595;SDS011;19946;49.306;11.350;2022-08-01T22:58:27;2.30;;;2.30;;
595;SDS011;19946;49.306;11.350;2022-08-01T23:01:29;2.40;;;2.40;;
595;SDS011;19946;49.306;11.350;2022-08-01T23:04:38;2.20;;;2.20;;
595;SDS011;19946;49.306;11.350;2022-08-01T23:07:46;2.20;;;2.20;;
595;SDS011;19946;49.306;11.350;2022-08-01T23:10:49;2.20;;;2.20;;
595;SDS011;19946;49.306;11.350;2022-08-01T23:13:51;1.90;;;1.90;;
595;SDS011;19946;49.306;11.350;2022-08-01T23:16:52;1.80;;;1.80;;
595;SDS011;19946;49.306;11.350;2022-08-01T23:19:55;2.03;;;2.03;;
595;SDS011;19946;49.306;11.350;2022-08-01T23:23:03;2.20;;;2.20;;
595;SDS011;19946;49.306;11.350;2022-08-01T23:26:05;2.10;;;2.10;;
595;SDS011;19946;49.306;11.350;2022-08-01T23:29:05;2.20;;;2.20;;
595;SDS011;19946;49.306;11.350;2022-08-01T23:32:06;2.37;;;2.37;;
595;SDS011;19946;49.306;11.350;2022-08-01T23:35:07;2.30;;;2.30;;
595;SDS011;19946;49.306;11.350;2022-08-01T23:38:07;2.20;;;2.20;;
595;SDS011;19946;49.306;11.350;2022-08-01T23:41:10;1.97;;;1.97;;
595;SDS011;19946;49.306;11.350;2022-08-01T23:44:18;1.90;;;1.90;;
595;SDS011;19946;49.306;11.350;2022-08-01T23:47:18;2.30;;;2.30;;
595;SDS011;19946;49.306;11.350;2022-08-01T23:50:19;2.23;;;2.23;;
595;SDS011;19946;49.306;11.350;2022-08-01T23:53:20;2.17;;;2.17;;
595;SDS011;19946;49.306;11.350;2022-08-01T23:56:20;2.00;;;2.00;;
595;SDS011;19946;49.306;11.350;2022-08-01T23:59:20;2.00;;;2.00;;
